Portada
METAR-TAF:

METAR-TAF

Aeroports :

Concord, Carolina del Nord, Estats Units d'Amèrica

latitud: 35-23-07N, longitud: 080-42-35W, altitud: 210 m

Observació

L'informe es va fer fa 57 minuts, a les 11:55 UTC
Vent calma
Temperatura 7°C
Humitat 100%
Pressió 1011 hPa
Visibilitat: 0.8 km
Cel cobert a una alçada de 200 ft
boira

METAR: KJQF 191155Z 00000KT 1/2SM FG OVC002 07/07 A2986

Hora: 07:52 (12:52 UTC)


TAF: manca

Observacions i pronòstics meteorològics de més de 4000 aeroports (METAR i TAF).

Les estacions disponibles són els punts grocs i vermells al mapa.

Posi el ratolí al punt desitjat per veure el nom de l'estació.

Feu clic per veure les observacions i els pronòstics meteorològics.

Per canviar el mapa: feu clic els botons verds amb una creu de color negre per apropar; al botó verd amb un guió per allunyar la imatge; o en les fletxes verdes per a mapes adjacents.


METAR-TAF: